Time;durP1;ratioP1;P1;durP2;ratioP2;P2;SDS_P1;SDS_P2;PMS_P1;PMS_P2;Temp;Humidity;BMP_temperature;BMP_pressure;BME280_temperature;BME280_humidity;BME280_pressure;Samples;Min_cycle;Max_cycle;Signal;HPM_P1;HPM_P2
2023/03/25 00:01:41;;;;;;;0.28;0.28;;;;;;;19.00;46.53;100014.00;5078843;28;20062;-37
2023/03/25 00:04:07;;;;;;;0.22;0.22;;;;;;;19.00;46.72;100014.00;5097196;28;20043;-37
2023/03/25 00:06:33;;;;;;;0.20;0.20;;;;;;;18.99;46.41;100012.31;5079094;28;20495;-36
2023/03/25 00:08:59;;;;;;;0.20;0.20;;;;;;;18.99;46.55;100009.56;5078723;28;20562;-37
2023/03/25 00:11:25;;;;;;;0.20;0.20;;;;;;;18.99;46.78;100009.56;5062036;28;20299;-37
2023/03/25 00:13:50;;;;;;;0.20;0.20;;;;;;;18.99;46.44;100012.31;5096989;28;20043;-36
2023/03/25 00:16:17;;;;;;;0.20;0.20;;;;;;;18.99;46.76;100004.06;5079166;28;20043;-36
2023/03/25 00:18:43;;;;;;;0.20;0.20;;;;;;;18.98;46.65;100005.19;5062302;28;20044;-36
2023/03/25 00:21:10;;;;;;;0.30;0.30;;;;;;;18.99;46.55;100008.75;5096889;28;20044;-36
2023/03/25 00:23:37;;;;;;;0.20;0.20;;;;;;;18.99;46.44;100006.81;5097259;28;20527;-37
2023/03/25 00:26:03;;;;;;;0.25;0.25;;;;;;;18.99;46.46;99995.78;5089180;28;20058;-37
2023/03/25 00:28:32;;;;;;;0.30;0.30;;;;;;;18.99;46.60;99998.53;5098256;28;20773;-36
2023/03/25 00:31:07;;;;;;;0.20;0.20;;;;;;;18.99;46.59;99997.72;5075253;28;20660;-36
2023/03/25 00:33:34;;;;;;;0.20;0.20;;;;;;;18.99;46.76;100004.06;5078446;28;20453;-37
2023/03/25 00:35:59;;;;;;;0.30;0.30;;;;;;;18.99;46.62;100003.25;5096989;28;20071;-36
2023/03/25 00:38:32;;;;;;;0.20;0.20;;;;;;;18.99;46.77;99995.78;5098433;28;20047;-36
2023/03/25 00:41:08;;;;;;;0.30;0.30;;;;;;;18.99;46.56;99994.97;5092243;28;20535;-36
2023/03/25 00:43:33;;;;;;;0.22;0.22;;;;;;;18.99;46.68;99986.69;5096833;28;20046;-36
2023/03/25 00:45:59;;;;;;;0.30;0.30;;;;;;;18.99;46.50;99983.91;5096788;28;20043;-37
2023/03/25 00:48:26;;;;;;;0.30;0.30;;;;;;;18.99;46.56;99981.16;5097097;28;20187;-37
2023/03/25 00:50:52;;;;;;;0.30;0.30;;;;;;;18.98;46.65;99991.38;5096033;28;20071;-37
2023/03/25 00:53:17;;;;;;;0.20;0.20;;;;;;;18.98;46.48;99994.13;5096538;28;20054;-37
2023/03/25 00:55:43;;;;;;;0.30;0.30;;;;;;;18.99;46.51;99990.25;5096343;28;20040;-36
2023/03/25 00:58:09;;;;;;;0.28;0.28;;;;;;;18.98;46.75;99988.63;5096584;28;20559;-37
2023/03/25 01:00:35;;;;;;;0.20;0.20;;;;;;;18.98;46.73;99994.13;5096244;28;20118;-36
2023/03/25 01:03:02;;;;;;;0.20;0.20;;;;;;;18.99;46.71;99997.72;5077934;28;20052;-37
2023/03/25 01:05:29;;;;;;;0.20;0.20;;;;;;;18.99;46.87;99998.53;5076916;28;20043;-37
2023/03/25 01:07:54;;;;;;;0.30;0.30;;;;;;;18.98;46.64;99996.91;5096540;28;20101;-36
2023/03/25 01:10:21;;;;;;;0.30;0.30;;;;;;;18.98;46.53;99988.63;5077908;28;20059;-37
2023/03/25 01:12:47;;;;;;;0.20;0.20;;;;;;;18.97;46.76;99983.41;5096164;28;20071;-36
2023/03/25 01:15:13;;;;;;;0.30;0.30;;;;;;;18.98;46.50;99991.38;5077407;28;20411;-36
2023/03/25 01:17:38;;;;;;;0.20;0.20;;;;;;;18.98;46.53;99983.09;5096351;28;20052;-36
2023/03/25 01:20:05;;;;;;;0.20;0.20;;;;;;;18.98;46.75;99988.63;5077842;28;20567;-37
2023/03/25 01:22:31;;;;;;;0.20;0.20;;;;;;;18.98;46.70;99985.88;5077633;28;20078;-36
2023/03/25 01:24:56;;;;;;;0.20;0.20;;;;;;;18.98;46.48;99988.63;5096098;28;20071;-37
2023/03/25 01:27:23;;;;;;;0.30;0.30;;;;;;;18.98;46.63;99985.06;5098803;28;20479;-36
2023/03/25 01:29:49;;;;;;;0.30;0.30;;;;;;;18.98;46.38;99990.56;5090561;28;20047;-37
2023/03/25 01:32:15;;;;;;;0.30;0.30;;;;;;;18.98;46.73;99980.34;5096023;28;20072;-37
2023/03/25 01:34:41;;;;;;;0.30;0.30;;;;;;;18.98;46.73;99982.28;5116294;28;20529;-37
2023/03/25 01:37:08;;;;;;;0.20;0.20;;;;;;;18.98;46.69;99979.53;5116209;28;20043;-37
2023/03/25 01:39:34;;;;;;;0.30;0.30;;;;;;;18.99;46.52;99987.50;5106918;28;20048;-37
2023/03/25 01:42:00;;;;;;;0.20;0.20;;;;;;;18.99;46.77;99994.97;5092136;28;20070;-37
2023/03/25 01:44:31;;;;;;;0.30;0.30;;;;;;;18.98;46.30;99985.88;5095634;28;20043;-37
2023/03/25 01:47:00;;;;;;;0.30;0.30;;;;;;;18.97;46.48;99987.00;5095840;28;20071;-37
2023/03/25 01:49:32;;;;;;;0.30;0.30;;;;;;;18.96;46.57;99988.13;5089775;28;20047;-37
2023/03/25 01:52:02;;;;;;;0.30;0.30;;;;;;;18.96;46.69;99982.59;5078074;28;20505;-36
2023/03/25 01:54:28;;;;;;;0.30;0.30;;;;;;;18.98;46.51;99976.78;5077143;28;20048;-36
2023/03/25 01:56:54;;;;;;;0.32;0.32;;;;;;;18.97;46.33;99969.63;5095341;28;20052;-37
2023/03/25 01:59:23;;;;;;;0.20;0.20;;;;;;;18.97;46.44;99975.97;5095589;28;20047;-36
2023/03/25 02:01:50;;;;;;;0.20;0.20;;;;;;;18.96;46.58;99973.50;5095580;28;20043;-37
2023/03/25 02:04:26;;;;;;;0.30;0.30;;;;;;;18.97;46.38;99983.41;5095403;28;20050;-37
2023/03/25 02:06:52;;;;;;;0.20;0.20;;;;;;;18.96;46.58;99977.09;5097671;28;20144;-36
2023/03/25 02:09:20;;;;;;;0.30;0.30;;;;;;;18.96;46.41;99974.31;5090461;28;20098;-37
2023/03/25 02:11:46;;;;;;;0.30;0.30;;;;;;;18.97;46.41;99975.13;5077373;28;20082;-36
2023/03/25 02:14:14;;;;;;;0.20;0.20;;;;;;;18.96;46.53;99979.84;5095045;28;20052;-36
2023/03/25 02:16:51;;;;;;;0.20;0.20;;;;;;;18.97;46.56;99975.13;5095249;28;20319;-37
2023/03/25 02:19:55;;;;;;;0.30;0.30;;;;;;;18.96;46.81;99977.09;5095060;28;20054;-37
2023/03/25 02:22:36;;;;;;;0.30;0.30;;;;;;;18.97;46.50;99975.13;5080102;28;20510;-36
2023/03/25 02:25:34;;;;;;;0.20;0.20;;;;;;;18.96;46.45;99979.84;5077072;28;20121;-37
2023/03/25 02:28:24;;;;;;;0.20;0.20;;;;;;;18.95;46.29;99975.41;5065019;28;20051;-36
2023/03/25 02:31:06;;;;;;;0.30;0.30;;;;;;;18.95;46.47;99978.19;5093522;28;20063;-37
2023/03/25 02:33:58;;;;;;;0.30;0.30;;;;;;;18.96;46.59;99981.78;5095843;28;20056;-37
2023/03/25 02:36:49;;;;;;;0.20;0.20;;;;;;;18.95;46.39;99974.59;5093932;28;20054;-36
2023/03/25 02:39:46;;;;;;;0.20;0.20;;;;;;;18.95;46.34;99983.69;5090455;28;20075;-36
2023/03/25 02:42:19;;;;;;;0.20;0.20;;;;;;;18.96;46.41;99979.03;5082505;28;20055;-36
2023/03/25 02:45:02;;;;;;;0.30;0.30;;;;;;;18.95;46.68;99975.41;5097197;28;20450;-36
2023/03/25 02:47:34;;;;;;;0.20;0.20;;;;;;;18.95;46.46;99983.69;5115385;28;20054;-37
2023/03/25 02:50:06;;;;;;;0.30;0.30;;;;;;;18.95;46.44;99986.47;5084432;28;20040;-36
2023/03/25 02:52:38;;;;;;;0.20;0.20;;;;;;;18.95;46.80;99974.59;5076741;28;20139;-37
2023/03/25 02:55:09;;;;;;;0.20;0.20;;;;;;;18.95;46.57;99978.19;5094974;28;20071;-37
2023/03/25 02:57:38;;;;;;;0.30;0.30;;;;;;;18.95;46.32;99975.41;5076956;28;20058;-37
2023/03/25 03:00:09;;;;;;;0.20;0.20;;;;;;;18.95;46.55;99969.91;5076525;28;20120;-36
2023/03/25 03:02:35;;;;;;;0.30;0.30;;;;;;;18.95;46.40;99972.66;5060601;28;20199;-37
2023/03/25 03:05:01;;;;;;;0.30;0.30;;;;;;;18.95;46.57;99969.91;5076320;28;20555;-36
2023/03/25 03:07:30;;;;;;;0.30;0.30;;;;;;;18.94;46.54;99971.03;5094658;28;20054;-37
2023/03/25 03:10:07;;;;;;;0.30;0.30;;;;;;;18.94;46.40;99957.25;5076094;28;20459;-37
2023/03/25 03:12:58;;;;;;;0.30;0.30;;;;;;;18.95;46.38;99958.88;5094531;28;20074;-37
2023/03/25 03:16:03;;;;;;;0.30;0.30;;;;;;;18.95;46.62;99955.28;5080394;28;20069;-37
2023/03/25 03:18:45;;;;;;;0.30;0.30;;;;;;;18.94;46.47;99957.25;5068052;28;20059;-36
2023/03/25 03:21:15;;;;;;;0.30;0.30;;;;;;;18.95;46.42;99955.28;5094449;28;20047;-37
2023/03/25 03:23:50;;;;;;;0.30;0.30;;;;;;;18.95;46.36;99958.06;5094614;28;20043;-37
2023/03/25 03:26:31;;;;;;;0.20;0.20;;;;;;;18.95;46.42;99955.28;5094588;28;20175;-36
2023/03/25 03:29:23;;;;;;;0.20;0.20;;;;;;;18.95;46.28;99958.06;5094905;28;20040;-37
2023/03/25 03:31:53;;;;;;;0.30;0.30;;;;;;;18.95;46.30;99960.81;5105042;28;20078;-36
2023/03/25 03:34:43;;;;;;;0.20;0.20;;;;;;;18.95;46.11;99958.06;5116812;28;20051;-36
2023/03/25 03:37:13;;;;;;;0.20;0.20;;;;;;;18.94;46.48;99960.00;5100658;28;20043;-37
2023/03/25 03:39:40;;;;;;;0.28;0.28;;;;;;;18.94;46.48;99960.00;5073201;28;20063;-36
2023/03/25 03:42:14;;;;;;;0.20;0.20;;;;;;;18.94;46.48;99962.75;5097096;28;20096;-36
2023/03/25 03:44:43;;;;;;;0.30;0.30;;;;;;;18.94;46.32;99960.00;5102361;28;20432;-36
2023/03/25 03:47:14;;;;;;;0.20;0.20;;;;;;;18.95;46.23;99955.28;5097607;28;20071;-36
2023/03/25 03:49:45;;;;;;;0.20;0.20;;;;;;;18.94;46.57;99960.00;5097294;28;20075;-37
2023/03/25 03:52:15;;;;;;;0.28;0.28;;;;;;;18.94;46.28;99968.28;5097238;28;20101;-37
2023/03/25 03:54:46;;;;;;;0.20;0.20;;;;;;;18.94;46.56;99965.50;5079368;28;20507;-36
2023/03/25 03:57:19;;;;;;;0.20;0.20;;;;;;;18.94;46.34;99967.47;5079827;28;20047;-36
2023/03/25 04:00:09;;;;;;;0.28;0.28;;;;;;;18.95;46.49;99964.38;5079084;28;20040;-37
2023/03/25 04:02:40;;;;;;;0.20;0.20;;;;;;;18.94;46.59;99961.94;5081962;28;20130;-37
2023/03/25 04:05:10;;;;;;;0.30;0.30;;;;;;;18.94;46.56;99961.94;5096933;28;20094;-36
2023/03/25 04:07:40;;;;;;;0.20;0.20;;;;;;;18.94;46.33;99964.69;5079582;28;20040;-37
2023/03/25 04:10:17;;;;;;;0.25;0.25;;;;;;;18.94;46.33;99950.91;5097021;28;20040;-36
2023/03/25 04:12:51;;;;;;;0.30;0.30;;;;;;;18.94;46.57;99959.19;5097114;28;20582;-37
2023/03/25 04:15:17;;;;;;;0.30;0.30;;;;;;;18.94;46.15;99951.72;5078846;28;20051;-37
2023/03/25 04:17:43;;;;;;;0.30;0.30;;;;;;;18.94;46.33;99961.94;5097709;28;20208;-36
2023/03/25 04:20:13;;;;;;;0.20;0.20;;;;;;;18.94;46.25;99968.28;5096958;28;20044;-36
2023/03/25 04:22:44;;;;;;;0.30;0.30;;;;;;;18.94;46.23;99960.00;5078632;28;20089;-37
2023/03/25 04:25:10;;;;;;;0.20;0.20;;;;;;;18.95;46.37;99966.34;5096902;28;20082;-37
2023/03/25 04:27:37;;;;;;;0.20;0.20;;;;;;;18.93;46.40;99955.59;5079115;28;20058;-36
2023/03/25 04:30:07;;;;;;;0.30;0.30;;;;;;;18.93;46.49;99958.38;5096685;28;20052;-36
2023/03/25 04:32:33;;;;;;;0.25;0.25;;;;;;;18.93;46.39;99957.56;5066390;28;20438;-37
2023/03/25 04:35:00;;;;;;;0.30;0.30;;;;;;;18.94;46.24;99953.66;5116581;28;20507;-37
2023/03/25 04:37:27;;;;;;;0.30;0.30;;;;;;;18.93;46.46;99963.88;5081646;28;20363;-36
2023/03/25 04:39:55;;;;;;;0.30;0.30;;;;;;;18.93;46.18;99961.13;5105597;28;20086;-36
2023/03/25 04:42:24;;;;;;;0.20;0.20;;;;;;;18.92;46.24;99951.22;5078491;28;20515;-36
2023/03/25 04:44:51;;;;;;;0.20;0.20;;;;;;;18.94;46.52;99959.19;5096643;28;20079;-36
2023/03/25 04:47:20;;;;;;;0.20;0.20;;;;;;;18.94;46.26;99957.25;5096770;28;20047;-36
2023/03/25 04:49:46;;;;;;;0.20;0.20;;;;;;;18.93;46.50;99955.59;5106399;28;20489;-37
2023/03/25 04:52:12;;;;;;;0.20;0.20;;;;;;;18.94;46.22;99957.25;5096488;28;20100;-36
2023/03/25 04:54:39;;;;;;;0.20;0.20;;;;;;;18.94;46.56;99964.69;5096462;28;20048;-37
2023/03/25 04:57:07;;;;;;;0.20;0.20;;;;;;;18.93;46.25;99952.84;5096233;28;20066;-36
2023/03/25 04:59:33;;;;;;;0.30;0.30;;;;;;;18.93;46.22;99958.38;5096563;28;20108;-37
2023/03/25 05:02:01;;;;;;;0.30;0.30;;;;;;;18.94;46.43;99957.25;5060568;28;20407;-36
2023/03/25 05:04:26;;;;;;;0.20;0.20;;;;;;;18.93;46.42;99961.13;5087232;28;20053;-37
2023/03/25 05:06:52;;;;;;;0.25;0.25;;;;;;;18.93;46.35;99958.38;5095895;28;20060;-36
2023/03/25 05:09:20;;;;;;;0.20;0.20;;;;;;;18.93;46.18;99958.38;5077947;28;20044;-37
2023/03/25 05:11:46;;;;;;;0.22;0.22;;;;;;;18.93;46.28;99968.59;5077750;28;20419;-37
2023/03/25 05:14:14;;;;;;;0.20;0.20;;;;;;;18.92;46.25;99967.78;5095952;28;20483;-36
2023/03/25 05:16:39;;;;;;;0.20;0.20;;;;;;;18.93;46.52;99974.09;5096030;28;20193;-37
2023/03/25 05:19:06;;;;;;;0.20;0.20;;;;;;;18.93;46.47;99979.63;5096277;28;20577;-36
2023/03/25 05:21:36;;;;;;;0.30;0.30;;;;;;;18.91;46.42;99973.56;5095927;28;20425;-36
2023/03/25 05:24:03;;;;;;;0.30;0.30;;;;;;;18.93;46.49;99976.88;5061661;28;20071;-36
2023/03/25 05:26:33;;;;;;;0.20;0.20;;;;;;;18.93;46.22;99982.38;5095738;28;20093;-36
2023/03/25 05:29:09;;;;;;;0.20;0.20;;;;;;;18.93;46.38;99979.63;5096220;28;20330;-36
2023/03/25 05:31:35;;;;;;;0.20;0.20;;;;;;;18.91;46.40;99979.94;5095491;28;20048;-36
2023/03/25 05:34:01;;;;;;;0.20;0.20;;;;;;;18.92;46.24;99984.31;5079768;28;20074;-37
2023/03/25 05:36:26;;;;;;;0.22;0.22;;;;;;;18.92;46.44;99978.00;5115335;28;20070;-37
2023/03/25 05:38:53;;;;;;;0.20;0.20;;;;;;;18.92;46.47;99973.28;5096465;28;20044;-36
2023/03/25 05:41:21;;;;;;;0.28;0.28;;;;;;;18.93;46.44;99974.91;5077653;28;20100;-36
2023/03/25 05:43:49;;;;;;;0.20;0.20;;;;;;;18.93;46.24;99974.09;5077451;28;20051;-36
2023/03/25 05:46:16;;;;;;;0.20;0.20;;;;;;;18.91;46.41;99982.69;5077724;28;20355;-37
2023/03/25 05:48:42;;;;;;;0.20;0.20;;;;;;;18.92;46.42;99981.56;5096082;28;20271;-36
2023/03/25 05:51:14;;;;;;;0.28;0.28;;;;;;;18.92;46.16;99973.28;5077192;28;20052;-36
2023/03/25 05:53:42;;;;;;;0.20;0.20;;;;;;;18.91;46.19;99977.19;5077448;28;20044;-36
2023/03/25 05:56:09;;;;;;;0.20;0.20;;;;;;;18.91;46.13;99979.09;5077557;28;20075;-37
2023/03/25 05:58:35;;;;;;;0.20;0.20;;;;;;;18.92;46.28;99983.50;5095438;28;20043;-37
2023/03/25 06:01:01;;;;;;;0.20;0.20;;;;;;;18.92;46.32;99978.81;5095959;28;20050;-37
2023/03/25 06:03:27;;;;;;;0.20;0.20;;;;;;;18.92;46.31;99989.84;5088421;28;20080;-37
2023/03/25 06:05:53;;;;;;;0.30;0.30;;;;;;;18.91;46.08;99993.72;5116039;28;20126;-37
2023/03/25 06:08:24;;;;;;;0.20;0.20;;;;;;;18.91;46.25;99988.22;5115560;28;20462;-36
2023/03/25 06:10:57;;;;;;;0.20;0.20;;;;;;;18.91;46.17;99993.72;5078926;28;20047;-37
2023/03/25 06:13:23;;;;;;;0.30;0.30;;;;;;;18.91;46.18;99990.97;5095354;28;20480;-36
2023/03/25 06:15:54;;;;;;;0.30;0.30;;;;;;;18.91;46.10;99988.22;5095129;28;20043;-37
2023/03/25 06:18:23;;;;;;;0.20;0.20;;;;;;;18.92;46.15;99989.03;5095587;28;20048;-36
2023/03/25 06:20:52;;;;;;;0.30;0.30;;;;;;;18.91;46.34;99982.69;5095300;28;20063;-37
2023/03/25 06:23:21;;;;;;;0.20;0.20;;;;;;;18.91;46.21;99984.59;5095452;28;20039;-36
2023/03/25 06:25:48;;;;;;;0.20;0.20;;;;;;;18.90;46.17;99989.31;5095223;28;20716;-36
2023/03/25 06:28:17;;;;;;;0.20;0.20;;;;;;;18.89;46.17;99987.69;5095155;28;20043;-37
2023/03/25 06:30:44;;;;;;;0.30;0.30;;;;;;;18.90;46.17;99989.31;5095079;28;20105;-37
2023/03/25 06:33:10;;;;;;;0.20;0.20;;;;;;;18.91;45.99;99988.22;5077340;28;20059;-36
2023/03/25 06:35:36;;;;;;;0.20;0.20;;;;;;;18.90;46.45;99989.31;5095431;28;20491;-36
2023/03/25 06:38:02;;;;;;;0.20;0.20;;;;;;;18.91;46.22;100001.16;5095390;28;20052;-36
2023/03/25 06:40:28;;;;;;;0.20;0.20;;;;;;;18.90;46.11;99999.53;5093252;28;20043;-37
2023/03/25 06:42:53;;;;;;;0.20;0.20;;;;;;;18.89;46.36;100001.47;5095200;28;20079;-37
2023/03/25 06:45:19;;;;;;;0.30;0.30;;;;;;;18.90;46.06;100002.28;5094785;28;20487;-36
2023/03/25 06:47:45;;;;;;;0.30;0.30;;;;;;;18.91;46.32;100013.03;5094971;28;20078;-36
2023/03/25 06:50:10;;;;;;;0.20;0.20;;;;;;;18.90;46.34;100005.03;5085148;28;20120;-36
2023/03/25 06:52:36;;;;;;;0.20;0.20;;;;;;;18.91;46.26;100004.78;5095093;28;20475;-37
2023/03/25 06:55:03;;;;;;;0.20;0.20;;;;;;;18.91;46.30;100012.19;5095265;28;20460;-36
2023/03/25 06:57:29;;;;;;;0.30;0.30;;;;;;;18.90;46.21;100005.03;5076341;28;20051;-37
2023/03/25 06:59:54;;;;;;;0.30;0.30;;;;;;;18.90;46.07;100002.28;5094370;28;20506;-37
2023/03/25 07:02:20;;;;;;;0.30;0.30;;;;;;;18.91;46.10;100010.28;5094283;28;20054;-36
2023/03/25 07:04:45;;;;;;;0.30;0.30;;;;;;;18.90;46.25;100002.28;5109874;28;20123;-37
2023/03/25 07:07:11;;;;;;;0.25;0.25;;;;;;;18.89;46.12;100000.66;5118758;28;20058;-36
2023/03/25 07:09:37;;;;;;;0.20;0.20;;;;;;;18.89;46.27;99995.97;5109565;28;20053;-37
2023/03/25 07:12:03;;;;;;;0.30;0.30;;;;;;;18.90;46.25;99991.25;5097967;28;20443;-37
2023/03/25 07:14:28;;;;;;;0.30;0.30;;;;;;;18.89;46.08;100001.47;5098731;28;20040;-36
2023/03/25 07:16:55;;;;;;;0.30;0.30;;;;;;;18.90;46.37;99997.59;5097914;28;20039;-36
2023/03/25 07:19:20;;;;;;;0.20;0.20;;;;;;;18.89;46.03;99998.72;5098108;28;20058;-36
2023/03/25 07:21:46;;;;;;;0.20;0.20;;;;;;;18.89;46.26;99995.97;5097566;28;20423;-36
2023/03/25 07:24:12;;;;;;;0.30;0.30;;;;;;;18.90;46.41;99997.59;5098141;28;20054;-37
2023/03/25 07:26:37;;;;;;;0.20;0.20;;;;;;;18.90;46.08;100000.34;5098361;28;20047;-36
2023/03/25 07:29:03;;;;;;;0.20;0.20;;;;;;;18.91;46.32;99998.41;5097959;28;20233;-36
2023/03/25 07:31:29;;;;;;;0.20;0.20;;;;;;;18.90;46.12;99999.53;5097675;28;20046;-36
2023/03/25 07:33:55;;;;;;;0.20;0.20;;;;;;;18.90;46.32;100007.81;5098153;28;20523;-36
2023/03/25 07:36:22;;;;;;;0.20;0.20;;;;;;;18.89;46.07;100012.50;5098101;28;20058;-36
2023/03/25 07:38:48;;;;;;;0.20;0.20;;;;;;;18.90;46.10;100013.31;5099418;28;20079;-36
2023/03/25 07:41:14;;;;;;;0.30;0.30;;;;;;;18.89;46.07;100001.47;5085408;28;20472;-36
2023/03/25 07:43:40;;;;;;;0.20;0.20;;;;;;;18.88;46.13;100008.13;5097828;28;20069;-36
2023/03/25 07:46:06;;;;;;;0.30;0.30;;;;;;;18.89;46.22;100008.94;5098259;28;20055;-37
2023/03/25 07:48:32;;;;;;;0.20;0.20;;;;;;;18.88;46.36;100010.88;5097940;28;20047;-36
2023/03/25 07:54:38;;;;;;;0.20;0.20;;;;;;;18.88;46.02;100012.81;5097355;28;20130;-36
2023/03/25 07:57:04;;;;;;;0.30;0.30;;;;;;;18.88;46.37;100021.09;5097852;28;20047;-36
2023/03/25 07:59:29;;;;;;;0.20;0.20;;;;;;;18.89;46.32;100029.06;5097467;28;20043;-36
2023/03/25 08:01:55;;;;;;;0.20;0.20;;;;;;;18.87;46.17;100025.78;5088343;28;20101;-37
2023/03/25 08:04:21;;;;;;;0.30;0.30;;;;;;;18.88;46.24;100023.84;5075518;28;20048;-37
2023/03/25 08:06:47;;;;;;;0.22;0.22;;;;;;;18.88;46.10;100026.63;5077476;28;20040;-37
2023/03/25 08:09:12;;;;;;;0.20;0.20;;;;;;;18.89;46.03;100031.00;5082429;28;20113;-37
2023/03/25 08:11:38;;;;;;;0.30;0.30;;;;;;;18.88;46.06;100021.91;5096781;28;20040;-37
2023/03/25 08:14:04;;;;;;;0.20;0.20;;;;;;;18.88;46.17;100037.66;5096696;28;20448;-36
2023/03/25 08:16:30;;;;;;;0.20;0.20;;;;;;;18.88;46.05;100029.38;5096726;28;20048;-37
2023/03/25 08:18:55;;;;;;;0.20;0.20;;;;;;;18.88;46.08;100037.66;5097066;28;20039;-37
2023/03/25 08:21:23;;;;;;;0.30;0.30;;;;;;;18.88;46.06;100043.97;5096503;28;20086;-37
2023/03/25 08:23:51;;;;;;;0.30;0.30;;;;;;;18.88;46.32;100041.22;5096717;28;20051;-37
2023/03/25 08:26:16;;;;;;;0.20;0.20;;;;;;;18.89;45.94;100044.78;5097078;28;20039;-36
2023/03/25 08:28:42;;;;;;;0.20;0.20;;;;;;;18.88;46.11;100052.25;5096941;28;20108;-37
2023/03/25 08:31:08;;;;;;;0.20;0.20;;;;;;;18.88;46.29;100051.44;5070443;28;20416;-36
2023/03/25 08:33:38;;;;;;;0.20;0.20;;;;;;;18.89;46.40;100040.09;5076360;28;20047;-36
2023/03/25 08:36:04;;;;;;;0.20;0.20;;;;;;;18.89;46.12;100050.31;5074740;28;20120;-36
2023/03/25 08:38:31;;;;;;;0.25;0.25;;;;;;;18.88;46.17;100051.44;5074945;28;20048;-37
2023/03/25 08:41:00;;;;;;;0.20;0.20;;;;;;;18.88;46.21;100046.75;5095909;28;20048;-37
2023/03/25 08:43:26;;;;;;;0.20;0.20;;;;;;;18.87;46.09;100056.16;5096583;28;20384;-37
2023/03/25 08:45:52;;;;;;;0.30;0.30;;;;;;;18.88;46.21;100066.06;5116797;28;20542;-37
2023/03/25 08:48:18;;;;;;;0.20;0.20;;;;;;;18.88;46.17;100048.69;5099041;28;20095;-37
2023/03/25 08:50:44;;;;;;;0.20;0.20;;;;;;;18.88;46.16;100057.78;5079932;28;20059;-37
2023/03/25 08:53:09;;;;;;;0.20;0.20;;;;;;;18.86;46.09;100048.97;5094527;28;20128;-36
2023/03/25 08:55:36;;;;;;;0.30;0.30;;;;;;;18.87;46.29;100052.53;5096532;28;20092;-36
2023/03/25 08:58:03;;;;;;;0.20;0.20;;;;;;;18.88;45.88;100062.47;5096819;28;20047;-36
2023/03/25 09:00:29;;;;;;;0.30;0.30;;;;;;;18.87;46.11;100053.38;5082187;28;20465;-37
2023/03/25 09:02:57;;;;;;;0.20;0.20;;;;;;;18.88;46.11;100051.44;5096175;28;20044;-36
2023/03/25 09:05:23;;;;;;;0.20;0.20;;;;;;;18.87;46.23;100053.38;5096228;28;20103;-37
2023/03/25 09:07:49;;;;;;;0.20;0.20;;;;;;;18.87;46.11;100049.78;5096603;28;20056;-36
2023/03/25 09:10:15;;;;;;;0.20;0.20;;;;;;;18.87;45.90;100052.53;5096552;28;20043;-36
2023/03/25 09:12:40;;;;;;;0.20;0.20;;;;;;;18.87;46.22;100052.53;5057612;28;20063;-36
2023/03/25 09:15:07;;;;;;;0.20;0.20;;;;;;;18.88;46.02;100054.19;5075821;28;20040;-37
2023/03/25 09:17:33;;;;;;;0.20;0.20;;;;;;;18.87;46.16;100056.16;5075671;28;20105;-36
2023/03/25 09:19:58;;;;;;;0.20;0.20;;;;;;;18.87;45.90;100058.06;5088112;28;20055;-36
2023/03/25 09:22:24;;;;;;;0.20;0.20;;;;;;;18.87;46.06;100049.78;5095775;28;20048;-37
2023/03/25 09:24:50;;;;;;;0.20;0.20;;;;;;;18.87;45.95;100049.78;5077591;28;20047;-37
2023/03/25 09:27:15;;;;;;;0.20;0.20;;;;;;;18.87;45.99;100038.75;5094884;28;20047;-36
2023/03/25 09:29:41;;;;;;;0.20;0.20;;;;;;;18.86;46.03;100054.47;5096072;28;20182;-37
2023/03/25 09:32:08;;;;;;;0.20;0.20;;;;;;;18.87;46.16;100055.28;5095813;28;20054;-37
2023/03/25 09:34:33;;;;;;;0.30;0.30;;;;;;;18.86;46.18;100046.22;5096034;28;20055;-37
2023/03/25 09:37:00;;;;;;;0.20;0.20;;;;;;;18.87;46.19;100055.28;5077481;28;20251;-36
2023/03/25 09:39:26;;;;;;;0.20;0.20;;;;;;;18.86;45.96;100051.72;5095715;28;20078;-37
2023/03/25 09:42:13;;;;;;;0.20;0.20;;;;;;;18.86;46.06;100064.69;5096455;28;20101;-36
2023/03/25 09:44:55;;;;;;;0.20;0.20;;;;;;;18.87;45.96;100047.88;5096069;28;20075;-36
2023/03/25 09:47:22;;;;;;;0.22;0.22;;;;;;;18.87;45.78;100058.06;5095711;28;20055;-37
2023/03/25 09:49:53;;;;;;;0.20;0.20;;;;;;;18.87;45.85;100066.34;5087588;28;20913;-37
2023/03/25 09:52:24;;;;;;;0.30;0.30;;;;;;;18.87;46.02;100052.53;5077446;28;20058;-37
2023/03/25 09:55:08;;;;;;;0.20;0.20;;;;;;;18.86;45.93;100060.00;5101403;28;20419;-37
2023/03/25 09:57:42;;;;;;;0.30;0.30;;;;;;;18.86;46.02;100060.00;5094054;28;20133;-37
2023/03/25 10:00:16;;;;;;;0.30;0.30;;;;;;;18.86;45.92;100062.75;5095390;28;20589;-36
2023/03/25 10:03:06;;;;;;;0.20;0.20;;;;;;;18.86;46.11;100070.22;5077310;28;20068;-36
2023/03/25 10:05:53;;;;;;;0.30;0.30;;;;;;;18.87;45.97;100072.69;5080169;28;20070;-37
2023/03/25 10:08:46;;;;;;;0.20;0.20;;;;;;;18.86;46.10;100071.03;5060837;28;20043;-36
2023/03/25 10:14:10;;;;;;;0.20;0.20;;;;;;;18.86;45.97;100082.06;5175116;27;20124;-36
2023/03/25 10:16:50;;;;;;;0.30;0.30;;;;;;;18.86;46.00;100076.56;5118701;27;20042;-36
2023/03/25 10:19:49;;;;;;;0.20;0.20;;;;;;;18.86;45.83;100082.06;5153512;27;20054;-37
2023/03/25 10:22:24;;;;;;;0.30;0.30;;;;;;;18.86;46.05;100082.06;5140474;27;20046;-36
2023/03/25 10:25:03;;;;;;;0.30;0.30;;;;;;;18.86;46.13;100078.50;5153520;27;20042;-37
2023/03/25 10:27:34;;;;;;;0.20;0.20;;;;;;;18.85;45.77;100080.44;5153591;27;20736;-36
2023/03/25 10:30:10;;;;;;;0.20;0.20;;;;;;;18.85;45.98;100077.69;5140842;27;20102;-36
2023/03/25 10:32:40;;;;;;;0.20;0.20;;;;;;;18.86;46.00;100087.59;5136581;27;20079;-36
2023/03/25 10:35:11;;;;;;;0.20;0.20;;;;;;;18.86;45.77;100086.78;5132678;27;20047;-37
2023/03/25 10:37:40;;;;;;;0.20;0.20;;;;;;;18.85;46.05;100083.19;5132496;27;20043;-36
2023/03/25 10:40:29;;;;;;;0.20;0.20;;;;;;;18.86;45.92;100092.28;5114039;27;20046;-37
2023/03/25 10:43:17;;;;;;;0.20;0.20;;;;;;;18.85;45.71;100083.19;5100378;27;20507;-36
2023/03/25 10:45:44;;;;;;;0.20;0.20;;;;;;;18.85;45.78;100083.19;5130878;27;20579;-36
2023/03/25 10:48:15;;;;;;;0.30;0.30;;;;;;;18.86;45.82;100078.50;5114058;27;20208;-37
2023/03/25 10:50:41;;;;;;;0.30;0.30;;;;;;;18.86;45.69;100087.59;5096899;27;20083;-36
2023/03/25 10:53:18;;;;;;;0.20;0.20;;;;;;;18.84;45.97;100070.53;5132859;27;20349;-37
2023/03/25 10:55:44;;;;;;;0.20;0.20;;;;;;;18.85;45.67;100074.91;5114429;27;20054;-36
2023/03/25 10:58:15;;;;;;;0.20;0.20;;;;;;;18.86;45.66;100084.00;5132246;27;20039;-36
2023/03/25 11:00:40;;;;;;;0.20;0.20;;;;;;;18.84;45.77;100070.53;5113337;27;20065;-36
2023/03/25 11:03:15;;;;;;;0.30;0.30;;;;;;;18.85;45.68;100063.06;5132437;27;20055;-37
2023/03/25 11:05:40;;;;;;;0.20;0.20;;;;;;;18.85;45.97;100066.66;5132358;27;20686;-37
2023/03/25 11:08:08;;;;;;;0.20;0.20;;;;;;;18.85;45.97;100072.16;5132213;27;20276;-36
2023/03/25 11:10:55;;;;;;;0.30;0.30;;;;;;;18.85;46.03;100069.41;5115714;27;20204;-37
2023/03/25 11:13:24;;;;;;;0.25;0.25;;;;;;;18.86;45.96;100072.97;5132106;27;20066;-37
2023/03/25 11:15:52;;;;;;;0.25;0.25;;;;;;;18.85;45.94;100072.16;5132251;27;20047;-36
2023/03/25 11:18:23;;;;;;;0.20;0.20;;;;;;;18.84;46.03;100067.78;5131809;27;20043;-37
2023/03/25 11:20:51;;;;;;;0.25;0.25;;;;;;;18.85;45.74;100076.84;5113055;27;20074;-36
2023/03/25 11:23:23;;;;;;;0.22;0.22;;;;;;;18.84;45.83;100084.31;5112032;27;20484;-36
2023/03/25 11:25:49;;;;;;;0.30;0.30;;;;;;;18.84;45.77;100087.09;5100040;28;20072;-36
2023/03/25 11:28:20;;;;;;;0.30;0.30;;;;;;;18.84;45.79;100089.03;5118061;28;20047;-36
2023/03/25 11:31:22;;;;;;;0.28;0.28;;;;;;;18.84;45.83;100087.09;5099618;27;20043;-36
2023/03/25 11:36:53;;;;;;;0.20;0.20;;;;;;;18.88;45.72;100076.28;5174001;27;20352;-36
2023/03/25 11:41:57;;;;;;;0.30;0.30;;;;;;;18.87;45.67;100092.00;5174584;27;20515;-36
2023/03/25 11:44:28;;;;;;;0.20;0.20;;;;;;;18.86;45.67;100106.09;5153925;27;20065;-36
2023/03/25 11:46:57;;;;;;;0.20;0.20;;;;;;;18.86;45.62;100100.56;5153538;27;20058;-36
2023/03/25 11:49:23;;;;;;;0.20;0.20;;;;;;;18.85;45.89;100102.50;5141907;27;20042;-36
2023/03/25 11:51:56;;;;;;;0.20;0.20;;;;;;;18.85;45.85;100110.78;5134995;27;20344;-36
2023/03/25 11:54:24;;;;;;;0.30;0.30;;;;;;;18.85;45.85;100118.25;5135039;27;20082;-36